Terminal Aerodrome Forecast
Issued by NWS Central Illinois

Home | Current Version | Previous Version | Text Only | Print | Product List | Glossary On
Versions: 1 2 3 4 5 6 7 8 9 10 11 12 13 14 15 16 17 18 19
000
FTUS43 KILX 050530
TAFPIA
TAF
KPIA 050530Z 0506/0606 25006KT P6SM OVC008
     FM050900 22006KT 1/2SM FZFG BKN003
     FM051600 17007KT 4SM BR BKN008
     FM051900 16008KT P6SM SCT025=

USA.gov is the U.S. government's official web portal to all federal, state and local government web resources and services.